Time;durP1;ratioP1;P1;durP2;ratioP2;P2;SDS_P1;SDS_P2;PMS_P1;PMS_P2;Temp;Humidity;BMP_temperature;BMP_pressure;BME280_temperature;BME280_humidity;BME280_pressure;Samples;Min_cycle;Max_cycle;Signal;HPM_P1;HPM_P2
2022/07/28 00:01:41;;;;;;;3.80;3.00;;;14.20;99.90;;;;;;8291361;28;20025;-80
2022/07/28 00:05:42;;;;;;;9.55;3.00;;;14.40;99.90;;;;;;8291863;28;20033;-79
2022/07/28 00:09:42;;;;;;;6.32;2.97;;;14.50;99.90;;;;;;8291710;28;20026;-80
2022/07/28 00:13:43;;;;;;;3.53;3.22;;;14.40;99.90;;;;;;8291600;28;20072;-80
2022/07/28 00:17:43;;;;;;;4.00;2.85;;;14.30;99.90;;;;;;8293135;28;20026;-80
2022/07/28 00:21:44;;;;;;;4.95;3.25;;;14.20;99.90;;;;;;8291356;28;20452;-80
2022/07/28 00:25:44;;;;;;;3.97;3.13;;;14.20;99.90;;;;;;8291719;28;20080;-79
2022/07/28 00:29:45;;;;;;;4.30;3.28;;;14.20;99.90;;;;;;8292540;28;20030;-80
2022/07/28 00:33:45;;;;;;;5.70;3.28;;;14.20;99.90;;;;;;8291307;28;20418;-80
2022/07/28 00:37:46;;;;;;;6.22;3.70;;;14.30;99.90;;;;;;8291261;28;20025;-80
2022/07/28 00:41:46;;;;;;;8.63;3.47;;;14.10;99.90;;;;;;8288766;28;20094;-80
2022/07/28 00:45:47;;;;;;;8.52;3.80;;;14.00;99.90;;;;;;8290996;28;20117;-80
2022/07/28 00:49:49;;;;;;;5.82;3.95;;;14.00;99.90;;;;;;8290691;28;20064;-80
2022/07/28 00:53:50;;;;;;;6.97;3.55;;;14.00;99.90;;;;;;8291803;28;20383;-80
2022/07/28 00:57:50;;;;;;;6.78;4.07;;;14.00;99.90;;;;;;8291415;28;20022;-80
2022/07/28 01:01:52;;;;;;;5.20;3.85;;;13.90;99.90;;;;;;8290395;28;20033;-80
2022/07/28 01:06:22;;;;;;;6.00;4.15;;;13.90;99.90;;;;;;8290787;28;20108;-80
2022/07/28 01:10:29;;;;;;;5.53;4.00;;;14.00;99.90;;;;;;8291144;28;20026;-80
2022/07/28 01:14:43;;;;;;;5.57;4.38;;;14.10;99.90;;;;;;8295143;28;20048;-80
2022/07/28 01:19:01;;;;;;;4.75;4.32;;;14.10;99.90;;;;;;8296184;28;20025;-80
2022/07/28 01:23:10;;;;;;;8.52;4.93;;;14.10;99.90;;;;;;8297470;28;20034;-80
2022/07/28 01:27:28;;;;;;;5.20;4.70;;;13.80;99.90;;;;;;8298275;28;20037;-80
2022/07/28 01:31:52;;;;;;;6.75;4.15;;;13.70;99.90;;;;;;8294167;28;20040;-80
2022/07/28 01:36:00;;;;;;;6.60;4.95;;;13.90;99.90;;;;;;8296481;28;20108;-80
2022/07/28 01:40:05;;;;;;;5.65;4.72;;;13.70;99.90;;;;;;8296271;28;20156;-80
2022/07/28 01:44:10;;;;;;;6.15;4.47;;;13.70;99.90;;;;;;8296797;28;20034;-80
2022/07/28 01:48:14;;;;;;;6.82;5.10;;;13.60;99.90;;;;;;8295680;28;20526;-80
2022/07/28 01:52:16;;;;;;;7.00;5.10;;;13.60;99.90;;;;;;8292770;28;20585;-80
2022/07/28 01:56:19;;;;;;;6.25;4.68;;;13.30;99.90;;;;;;8295205;28;20030;-79
2022/07/28 02:00:20;;;;;;;7.50;5.03;;;13.10;99.90;;;;;;8295380;28;20021;-79
2022/07/28 02:04:22;;;;;;;6.13;4.88;;;12.90;99.90;;;;;;8296708;28;20450;-80
2022/07/28 02:08:24;;;;;;;6.28;5.20;;;12.80;99.90;;;;;;8295979;28;20038;-80
2022/07/28 02:12:26;;;;;;;6.18;5.30;;;12.50;99.90;;;;;;8295071;28;20398;-80
2022/07/28 02:16:29;;;;;;;8.10;4.88;;;12.30;99.90;;;;;;8294906;28;20036;-80
2022/07/28 02:20:30;;;;;;;7.18;5.88;;;12.30;99.90;;;;;;8294733;28;20088;-80
2022/07/28 02:24:32;;;;;;;7.82;5.47;;;12.20;99.90;;;;;;8293811;28;20037;-80
2022/07/28 02:28:34;;;;;;;7.28;5.32;;;12.30;99.90;;;;;;8294628;28;20034;-80
2022/07/28 02:32:51;;;;;;;7.95;6.00;;;12.10;99.90;;;;;;8294373;28;20473;-80
2022/07/28 02:37:00;;;;;;;6.80;5.63;;;12.00;99.90;;;;;;8295396;28;20038;-80
2022/07/28 02:41:09;;;;;;;7.57;5.47;;;11.90;99.90;;;;;;8294349;28;20061;-80
2022/07/28 02:45:12;;;;;;;7.20;6.20;;;11.80;99.90;;;;;;8293693;28;20625;-80
2022/07/28 02:49:20;;;;;;;8.85;6.70;;;11.80;99.90;;;;;;8292443;28;20037;-79
2022/07/28 02:53:23;;;;;;;8.05;5.93;;;11.80;99.90;;;;;;8283879;28;20027;-78
2022/07/28 02:57:25;;;;;;;13.13;5.90;;;11.90;99.90;;;;;;8292807;28;20021;-77
2022/07/28 03:01:26;;;;;;;9.20;5.93;;;12.20;99.90;;;;;;8295248;28;20116;-78
2022/07/28 03:05:27;;;;;;;7.10;5.60;;;12.30;99.90;;;;;;8291464;28;20410;-79
2022/07/28 03:09:28;;;;;;;6.75;5.80;;;12.10;99.90;;;;;;8296696;28;20054;-80
2022/07/28 03:13:28;;;;;;;10.77;6.55;;;12.00;99.90;;;;;;8295369;28;20022;-78
2022/07/28 03:17:29;;;;;;;9.80;5.65;;;11.90;99.90;;;;;;8296360;28;20026;-79
2022/07/28 03:21:29;;;;;;;9.18;6.38;;;11.80;99.90;;;;;;8292661;28;20033;-78
2022/07/28 03:25:37;;;;;;;8.38;7.10;;;11.70;99.90;;;;;;8295066;28;20026;-80
2022/07/28 03:29:40;;;;;;;9.55;6.32;;;11.50;99.90;;;;;;8294753;28;20051;-79
2022/07/28 03:33:40;;;;;;;8.07;6.88;;;11.40;99.90;;;;;;8291876;28;20433;-79
2022/07/28 03:37:52;;;;;;;8.18;6.70;;;11.30;99.90;;;;;;8289142;28;20053;-78
2022/07/28 03:41:54;;;;;;;8.32;7.32;;;11.20;99.90;;;;;;8284503;28;20041;-79
2022/07/28 03:45:55;;;;;;;10.55;8.05;;;11.10;99.90;;;;;;8276846;28;20041;-80
2022/07/28 03:49:55;;;;;;;9.50;7.38;;;11.10;99.90;;;;;;8283893;28;20225;-79
2022/07/28 03:53:56;;;;;;;11.15;8.00;;;11.10;99.90;;;;;;8286413;28;20026;-80
2022/07/28 03:57:56;;;;;;;10.18;8.27;;;11.00;99.90;;;;;;8291194;28;20022;-79
2022/07/28 04:01:57;;;;;;;10.95;7.97;;;11.10;99.90;;;;;;8288422;28;20033;-78
2022/07/28 04:05:58;;;;;;;10.95;7.35;;;11.00;99.90;;;;;;8284367;28;20057;-79
2022/07/28 04:09:58;;;;;;;10.32;9.05;;;11.10;99.90;;;;;;8291767;28;20038;-79
2022/07/28 04:13:59;;;;;;;12.23;8.02;;;11.10;99.90;;;;;;8288255;28;20025;-79
2022/07/28 04:18:00;;;;;;;11.63;7.95;;;11.40;99.90;;;;;;8286489;28;20393;-79
2022/07/28 04:22:01;;;;;;;8.40;7.35;;;11.40;99.90;;;;;;8292229;28;20036;-79
2022/07/28 04:26:01;;;;;;;9.25;7.82;;;11.50;99.90;;;;;;8290388;28;20521;-79
2022/07/28 04:30:09;;;;;;;8.48;7.60;;;11.70;99.90;;;;;;8292208;28;20065;-79
2022/07/28 04:34:10;;;;;;;8.80;7.50;;;11.90;99.90;;;;;;8292743;28;20033;-79
2022/07/28 04:38:13;;;;;;;8.20;6.93;;;12.10;99.90;;;;;;8294160;28;20553;-78
2022/07/28 04:42:15;;;;;;;11.70;7.65;;;12.20;99.90;;;;;;8286067;28;20109;-78
2022/07/28 04:46:15;;;;;;;9.25;6.90;;;12.40;99.90;;;;;;8289308;28;20563;-79
2022/07/28 04:50:18;;;;;;;8.15;7.35;;;12.60;99.90;;;;;;8293810;28;20018;-79
2022/07/28 04:54:18;;;;;;;9.32;7.03;;;13.00;99.90;;;;;;8297479;28;20360;-79
2022/07/28 04:58:19;;;;;;;8.07;6.13;;;13.60;99.90;;;;;;8295949;28;20022;-79
2022/07/28 05:02:20;;;;;;;8.15;6.20;;;14.40;99.90;;;;;;8297721;28;20030;-79
2022/07/28 05:06:20;;;;;;;7.72;5.57;;;15.30;99.90;;;;;;8298952;28;20030;-79
2022/07/28 05:10:21;;;;;;;5.20;4.60;;;16.00;99.90;;;;;;8297303;28;20270;-79
2022/07/28 05:14:21;;;;;;;5.95;4.50;;;16.60;99.90;;;;;;8296201;28;20022;-80
2022/07/28 05:18:22;;;;;;;5.72;5.13;;;17.30;99.90;;;;;;8297155;28;20022;-79
2022/07/28 05:22:22;;;;;;;5.45;4.90;;;17.70;99.90;;;;;;8295304;28;20125;-79
2022/07/28 05:26:23;;;;;;;5.10;4.60;;;18.20;99.90;;;;;;8295690;28;20041;-87
2022/07/28 05:30:24;;;;;;;6.80;5.07;;;18.50;99.90;;;;;;8301185;28;20026;-87
2022/07/28 05:34:24;;;;;;;6.60;5.22;;;18.40;99.90;;;;;;8299247;28;20116;-87
2022/07/28 05:38:26;;;;;;;7.00;5.30;;;18.50;99.90;;;;;;8300467;28;20017;-87
2022/07/28 05:42:28;;;;;;;6.57;5.82;;;18.50;99.90;;;;;;8300958;28;20044;-87
2022/07/28 05:46:29;;;;;;;9.18;6.43;;;18.80;99.90;;;;;;8301396;28;20053;-87
2022/07/28 05:50:29;;;;;;;9.85;6.60;;;19.00;99.90;;;;;;8297310;28;20114;-87
2022/07/28 05:54:30;;;;;;;8.70;6.00;;;19.10;99.90;;;;;;8301556;28;20026;-87
2022/07/28 05:58:30;;;;;;;7.00;6.07;;;19.00;99.90;;;;;;8288016;28;20021;-78
2022/07/28 06:02:31;;;;;;;7.05;6.30;;;19.50;99.90;;;;;;8292698;28;20053;-79
2022/07/28 06:06:31;;;;;;;6.72;5.93;;;19.90;99.90;;;;;;8291941;28;20065;-80
2022/07/28 06:14:51;;;;;;;7.13;6.43;;;20.10;99.90;;;;;;8292988;28;20028;-80
2022/07/28 06:18:52;;;;;;;8.52;6.72;;;20.40;99.90;;;;;;8296198;28;20497;-79
2022/07/28 06:22:53;;;;;;;7.35;6.20;;;20.80;99.90;;;;;;8297027;28;20026;-80
2022/07/28 06:26:54;;;;;;;7.80;6.50;;;20.90;99.90;;;;;;8293179;28;20517;-80
2022/07/28 06:30:54;;;;;;;7.35;5.78;;;21.40;99.90;;;;;;8291075;28;20026;-80
2022/07/28 06:34:55;;;;;;;7.95;6.43;;;21.30;99.90;;;;;;8296318;28;20402;-79
2022/07/28 06:38:56;;;;;;;8.15;6.78;;;21.00;99.90;;;;;;8297611;28;20022;-79
2022/07/28 06:42:56;;;;;;;8.20;6.60;;;21.40;99.90;;;;;;8297628;28;20100;-79
2022/07/28 06:46:57;;;;;;;9.65;6.63;;;21.70;99.90;;;;;;8294968;28;20026;-79
2022/07/28 06:50:58;;;;;;;10.05;6.88;;;21.60;99.90;;;;;;8293654;28;20482;-78
2022/07/28 06:54:59;;;;;;;11.20;7.05;;;22.00;99.90;;;;;;8294084;28;20067;-78
2022/07/28 06:58:59;;;;;;;8.68;5.93;;;21.90;99.90;;;;;;8295298;28;20022;-78
2022/07/28 07:03:00;;;;;;;8.63;6.28;;;22.00;99.90;;;;;;8294007;28;20014;-82
2022/07/28 07:07:00;;;;;;;6.80;6.03;;;22.10;99.90;;;;;;8293712;28;20033;-79
2022/07/28 07:11:01;;;;;;;7.30;6.50;;;22.40;99.90;;;;;;8289336;28;20030;-79
2022/07/28 07:15:04;;;;;;;11.35;6.32;;;22.70;99.90;;;;;;8293452;28;20466;-77
2022/07/28 07:19:04;;;;;;;10.32;6.82;;;22.60;99.90;;;;;;8289925;28;20097;-78
2022/07/28 07:23:05;;;;;;;8.63;6.18;;;22.50;99.90;;;;;;8286359;28;20251;-78
2022/07/28 07:27:05;;;;;;;7.47;6.32;;;23.00;99.90;;;;;;8289718;28;20029;-78
2022/07/28 07:31:06;;;;;;;8.80;7.10;;;23.00;99.90;;;;;;8288577;28;20050;-79
2022/07/28 07:35:07;;;;;;;8.73;6.25;;;23.00;99.90;;;;;;8292563;28;20068;-78
2022/07/28 07:39:08;;;;;;;10.13;7.00;;;23.20;99.90;;;;;;8287383;28;20034;-78
2022/07/28 07:43:09;;;;;;;11.48;6.97;;;23.30;99.90;;;;;;8291945;28;20108;-79
2022/07/28 07:47:09;;;;;;;8.07;6.75;;;23.80;99.90;;;;;;8292538;28;20117;-78
2022/07/28 07:51:10;;;;;;;11.50;7.30;;;24.00;99.90;;;;;;8291590;28;20032;-78
2022/07/28 07:55:10;;;;;;;8.13;6.65;;;24.10;99.90;;;;;;8290767;28;20022;-78
2022/07/28 07:59:11;;;;;;;8.15;6.80;;;24.50;99.90;;;;;;8292406;28;20022;-78
2022/07/28 08:03:14;;;;;;;8.00;6.70;;;24.40;99.90;;;;;;8291400;28;20152;-78
2022/07/28 08:07:14;;;;;;;8.70;6.57;;;24.00;99.90;;;;;;8289736;28;20411;-77
2022/07/28 08:11:15;;;;;;;8.93;7.57;;;24.30;99.90;;;;;;8288473;28;20030;-79
2022/07/28 08:15:15;;;;;;;8.13;7.15;;;24.50;99.90;;;;;;8290832;28;20068;-78
2022/07/28 08:19:16;;;;;;;7.53;6.40;;;24.80;99.90;;;;;;8288157;28;20092;-77
2022/07/28 08:23:17;;;;;;;8.15;6.80;;;24.70;99.90;;;;;;8289196;28;20053;-78
2022/07/28 08:27:17;;;;;;;8.50;6.57;;;25.00;99.90;;;;;;8291743;28;20029;-78
2022/07/28 08:31:20;;;;;;;7.43;6.60;;;25.30;99.90;;;;;;8291022;28;20026;-78
2022/07/28 08:35:21;;;;;;;6.85;5.65;;;25.40;99.90;;;;;;8291333;28;20413;-79
2022/07/28 08:39:21;;;;;;;8.63;6.00;;;26.00;99.90;;;;;;8290955;28;20028;-79
2022/07/28 08:43:34;;;;;;;7.53;5.20;;;26.10;99.90;;;;;;8291106;28;20030;-80
2022/07/28 08:47:35;;;;;;;8.15;6.13;;;26.60;99.90;;;;;;8290536;28;20026;-79
2022/07/28 08:51:36;;;;;;;8.88;5.78;;;25.90;99.90;;;;;;8293052;28;20478;-79
2022/07/28 08:55:38;;;;;;;5.88;5.13;;;26.00;99.90;;;;;;8283639;28;20062;-78
2022/07/28 08:59:39;;;;;;;6.57;5.88;;;25.90;99.90;;;;;;8288142;28;20168;-80
2022/07/28 09:03:40;;;;;;;7.88;5.90;;;26.00;99.90;;;;;;8289896;28;20022;-78
2022/07/28 09:07:43;;;;;;;6.95;5.63;;;25.70;99.90;;;;;;8290866;28;20030;-80
2022/07/28 09:11:43;;;;;;;6.30;4.68;;;25.90;99.90;;;;;;8290901;28;20030;-78
2022/07/28 09:15:45;;;;;;;7.53;4.85;;;26.40;99.90;;;;;;8288336;28;20022;-81
2022/07/28 09:19:45;;;;;;;5.55;4.85;;;26.60;99.90;;;;;;8290199;28;20030;-78
2022/07/28 09:23:48;;;;;;;9.27;5.32;;;26.90;99.90;;;;;;8289565;28;20038;-80
2022/07/28 09:27:50;;;;;;;6.00;5.03;;;26.20;99.90;;;;;;8286931;28;20034;-78
2022/07/28 09:31:51;;;;;;;15.55;6.68;;;26.10;99.90;;;;;;8283937;28;20092;-79
2022/07/28 09:35:54;;;;;;;7.20;4.93;;;26.40;99.90;;;;;;8290614;28;20022;-79
2022/07/28 09:39:59;;;;;;;9.63;4.97;;;27.10;99.90;;;;;;8296846;28;20029;-79
2022/07/28 09:43:59;;;;;;;5.18;4.40;;;27.40;99.90;;;;;;8290261;28;20040;-81
2022/07/28 09:48:13;;;;;;;7.35;4.57;;;27.60;99.90;;;;;;8297635;28;20045;-79
2022/07/28 09:52:36;;;;;;;5.03;4.45;;;27.60;99.90;;;;;;8291121;28;20064;-81
2022/07/28 09:56:39;;;;;;;6.43;4.18;;;27.60;99.90;;;;;;8294694;28;20040;-81
2022/07/28 10:00:39;;;;;;;5.40;4.07;;;27.40;99.90;;;;;;8293250;28;20026;-81
2022/07/28 10:04:41;;;;;;;6.65;4.40;;;27.70;99.90;;;;;;8290915;28;20605;-81
2022/07/28 10:08:49;;;;;;;5.72;4.32;;;28.20;99.90;;;;;;8298005;28;20030;-81
2022/07/28 10:12:50;;;;;;;6.30;4.50;;;28.50;98.40;;;;;;8296019;28;20486;-81
2022/07/28 10:16:52;;;;;;;5.82;3.97;;;28.20;97.30;;;;;;8294861;28;20037;-80
2022/07/28 10:20:52;;;;;;;4.68;3.65;;;28.60;98.00;;;;;;8285165;28;20037;-81
2022/07/28 10:24:55;;;;;;;7.63;4.38;;;28.40;95.20;;;;;;8294424;28;20037;-81
2022/07/28 10:28:57;;;;;;;3.90;3.50;;;28.40;96.60;;;;;;8288772;28;20030;-82
2022/07/28 10:33:01;;;;;;;5.85;3.60;;;28.70;95.10;;;;;;8291678;28;20057;-81
2022/07/28 10:37:03;;;;;;;4.97;3.65;;;29.00;94.20;;;;;;8297433;28;20090;-82
2022/07/28 10:41:07;;;;;;;7.78;3.45;;;29.30;94.60;;;;;;8296451;28;20030;-82
2022/07/28 10:45:12;;;;;;;4.53;3.60;;;29.60;92.10;;;;;;8294975;28;20041;-80
2022/07/28 10:49:13;;;;;;;5.45;3.20;;;28.90;94.00;;;;;;8297827;28;20061;-81
2022/07/28 10:53:26;;;;;;;8.30;3.70;;;29.30;92.50;;;;;;8289739;28;20490;-78
2022/07/28 10:57:29;;;;;;;4.07;3.63;;;30.40;91.00;;;;;;8294407;28;20014;-82
2022/07/28 11:01:38;;;;;;;5.05;3.42;;;30.70;86.80;;;;;;8295474;28;20379;-81
2022/07/28 11:05:40;;;;;;;4.18;3.30;;;30.80;88.20;;;;;;8281181;28;20113;-82
2022/07/28 11:09:41;;;;;;;5.07;3.33;;;30.90;84.00;;;;;;8287239;28;20490;-78
2022/07/28 11:13:41;;;;;;;5.57;2.97;;;30.20;86.70;;;;;;8288776;28;20108;-79
2022/07/28 11:17:59;;;;;;;3.90;3.00;;;30.90;87.50;;;;;;8288715;28;20101;-80
2022/07/28 11:22:18;;;;;;;3.33;3.00;;;32.20;79.80;;;;;;8284905;28;20057;-82
2022/07/28 11:26:19;;;;;;;4.35;2.97;;;32.80;74.60;;;;;;8285099;28;20024;-81
2022/07/28 11:30:31;;;;;;;4.03;3.15;;;32.60;71.30;;;;;;8289255;28;20033;-81
2022/07/28 11:35:03;;;;;;;4.10;3.38;;;32.50;75.30;;;;;;8288290;28;20041;-82
2022/07/28 11:39:26;;;;;;;4.00;2.90;;;32.10;73.50;;;;;;8309890;28;20117;-78
2022/07/28 11:43:30;;;;;;;3.70;3.00;;;33.10;69.00;;;;;;8286647;28;20106;-81
2022/07/28 11:47:31;;;;;;;4.10;3.05;;;33.00;66.90;;;;;;8288457;28;20113;-82
2022/07/28 11:51:33;;;;;;;3.20;2.90;;;32.80;66.60;;;;;;8294455;28;20279;-82
2022/07/28 11:55:33;;;;;;;4.05;2.85;;;33.50;66.90;;;;;;8290434;28;20076;-82
2022/07/28 11:59:49;;;;;;;6.47;3.10;;;33.70;64.80;;;;;;8293512;28;20032;-82
2022/07/28 12:03:52;;;;;;;4.60;3.38;;;34.20;64.90;;;;;;8291953;28;20506;-82
2022/07/28 12:07:53;;;;;;;5.57;2.97;;;32.40;65.10;;;;;;8293483;28;20041;-82
2022/07/28 12:11:54;;;;;;;3.28;2.97;;;33.20;67.90;;;;;;8293512;28;20022;-82
2022/07/28 12:15:55;;;;;;;3.40;2.65;;;33.90;61.70;;;;;;8294012;28;20033;-80
2022/07/28 12:20:00;;;;;;;3.97;2.90;;;33.00;64.10;;;;;;8293029;28;20137;-81
2022/07/28 12:24:01;;;;;;;6.68;2.70;;;33.80;63.50;;;;;;8291226;28;20068;-81
2022/07/28 12:28:19;;;;;;;4.78;3.08;;;33.30;61.40;;;;;;8291397;28;20030;-82
2022/07/28 12:32:28;;;;;;;7.18;2.72;;;33.80;61.20;;;;;;8294645;28;20544;-82
2022/07/28 12:36:29;;;;;;;2.80;2.53;;;33.60;59.90;;;;;;8293194;28;20026;-82
2022/07/28 12:40:29;;;;;;;5.40;2.60;;;33.90;59.20;;;;;;8293989;28;20026;-82
2022/07/28 12:44:40;;;;;;;3.88;2.80;;;32.30;63.40;;;;;;8294159;28;20033;-81
2022/07/28 12:48:41;;;;;;;4.13;2.90;;;31.50;64.20;;;;;;8294149;28;20053;-81
2022/07/28 12:52:44;;;;;;;6.80;3.22;;;31.40;64.80;;;;;;8286384;28;20076;-81
2022/07/28 12:56:51;;;;;;;3.50;2.97;;;32.30;62.70;;;;;;8290877;28;20037;-81
2022/07/28 13:00:53;;;;;;;4.10;2.65;;;32.20;62.30;;;;;;8290132;28;20026;-79
2022/07/28 13:04:53;;;;;;;3.60;2.70;;;31.80;64.20;;;;;;8293968;28;20030;-82
2022/07/28 13:08:54;;;;;;;4.53;2.80;;;32.80;60.20;;;;;;8293607;28;20030;-82
2022/07/28 13:13:06;;;;;;;3.78;2.50;;;33.80;59.90;;;;;;8298592;28;20125;-82
2022/07/28 13:17:06;;;;;;;6.35;2.70;;;34.30;57.20;;;;;;8298996;28;20022;-81
2022/07/28 13:21:07;;;;;;;4.60;2.60;;;35.50;56.20;;;;;;8298366;28;20029;-81
2022/07/28 13:25:08;;;;;;;4.57;3.00;;;36.70;54.10;;;;;;8300344;28;20026;-81
2022/07/28 13:29:10;;;;;;;3.65;2.92;;;35.90;53.70;;;;;;8298467;28;20045;-82
2022/07/28 13:33:10;;;;;;;5.30;2.30;;;37.70;51.00;;;;;;8298231;28;20030;-81
2022/07/28 13:37:11;;;;;;;3.22;2.67;;;37.70;49.50;;;;;;8297556;28;20028;-82
2022/07/28 13:41:12;;;;;;;6.20;2.65;;;36.20;51.60;;;;;;8297435;28;20052;-81
2022/07/28 13:45:13;;;;;;;3.65;2.72;;;34.50;54.20;;;;;;8285082;28;20524;-83
2022/07/28 13:49:13;;;;;;;4.25;2.67;;;34.20;54.10;;;;;;8295408;28;20045;-82
2022/07/28 13:53:14;;;;;;;2.65;2.45;;;35.50;56.50;;;;;;8296967;28;20025;-81
2022/07/28 13:57:15;;;;;;;3.78;2.63;;;34.40;56.10;;;;;;8297405;28;20025;-83
2022/07/28 14:01:15;;;;;;;3.50;2.72;;;34.10;57.10;;;;;;8296646;28;20405;-81
2022/07/28 14:05:16;;;;;;;5.30;2.63;;;34.50;56.80;;;;;;8297496;28;20038;-82
2022/07/28 14:09:17;;;;;;;3.10;2.58;;;36.70;53.50;;;;;;8298969;28;20037;-83
2022/07/28 14:13:18;;;;;;;4.53;2.80;;;37.00;50.50;;;;;;8298316;28;20022;-83
2022/07/28 14:17:21;;;;;;;3.33;2.70;;;38.70;47.20;;;;;;8297450;28;20045;-82
2022/07/28 14:21:22;;;;;;;2.83;2.63;;;39.10;45.70;;;;;;8298263;28;20028;-81
2022/07/28 14:25:23;;;;;;;6.13;3.05;;;38.10;47.60;;;;;;8297312;28;20499;-81
2022/07/28 14:29:24;;;;;;;6.13;2.70;;;35.20;51.10;;;;;;8297302;28;20045;-82
2022/07/28 14:33:26;;;;;;;3.10;2.42;;;34.80;52.60;;;;;;8299107;28;20041;-81
2022/07/28 14:37:26;;;;;;;5.32;2.67;;;35.20;51.70;;;;;;8296821;28;20018;-82
2022/07/28 14:41:27;;;;;;;3.97;2.60;;;34.60;53.00;;;;;;8296663;28;20490;-81
2022/07/28 14:45:27;;;;;;;3.67;2.53;;;35.60;50.90;;;;;;8296683;28;20032;-82
2022/07/28 14:49:28;;;;;;;5.45;2.58;;;35.60;50.20;;;;;;8297821;28;20029;-82
2022/07/28 14:53:29;;;;;;;2.63;2.17;;;35.40;50.00;;;;;;8293344;28;20152;-80
2022/07/28 14:57:30;;;;;;;4.53;2.53;;;34.70;53.10;;;;;;8296658;28;20371;-82
2022/07/28 15:01:30;;;;;;;2.95;2.58;;;36.20;49.90;;;;;;8296235;28;20049;-81
2022/07/28 15:05:31;;;;;;;3.20;2.90;;;36.00;50.40;;;;;;8297292;28;20033;-82
2022/07/28 15:09:32;;;;;;;2.90;2.40;;;34.90;51.60;;;;;;8296362;28;20109;-81
2022/07/28 15:13:33;;;;;;;3.92;2.75;;;36.40;49.00;;;;;;8296168;28;20088;-82
2022/07/28 15:17:34;;;;;;;2.95;2.45;;;36.90;47.90;;;;;;8296166;28;20045;-82
2022/07/28 15:21:38;;;;;;;3.65;2.28;;;37.30;47.30;;;;;;8295613;28;20018;-81
2022/07/28 15:25:39;;;;;;;3.80;2.92;;;35.80;49.10;;;;;;8297135;28;20040;-82
2022/07/28 15:29:39;;;;;;;2.90;2.40;;;34.80;50.30;;;;;;8296736;28;20022;-81
2022/07/28 15:33:41;;;;;;;3.35;2.65;;;34.40;51.70;;;;;;8294538;28;20025;-80
2022/07/28 15:37:41;;;;;;;3.00;2.38;;;34.30;51.60;;;;;;8295372;28;20052;-81
2022/07/28 15:41:43;;;;;;;5.40;2.60;;;33.50;52.20;;;;;;8296459;28;20099;-81
2022/07/28 15:45:44;;;;;;;5.53;2.65;;;32.00;55.80;;;;;;8296644;28;20034;-81
2022/07/28 15:49:45;;;;;;;3.65;2.58;;;30.90;57.20;;;;;;8293937;28;20025;-81
2022/07/28 15:53:51;;;;;;;5.30;3.03;;;29.50;64.00;;;;;;8291730;28;20105;-81
2022/07/28 15:57:51;;;;;;;5.78;2.47;;;28.90;65.30;;;;;;8294112;28;20021;-82
2022/07/28 16:01:52;;;;;;;3.40;2.55;;;28.50;66.50;;;;;;8294841;28;20026;-82
2022/07/28 16:05:52;;;;;;;4.80;2.78;;;28.40;67.70;;;;;;8294272;28;20490;-82
2022/07/28 16:09:54;;;;;;;5.13;2.63;;;28.20;66.20;;;;;;8294647;28;20676;-81
2022/07/28 16:13:54;;;;;;;3.30;2.40;;;28.20;66.00;;;;;;8296116;28;20033;-82
2022/07/28 16:17:55;;;;;;;3.13;2.80;;;28.10;70.20;;;;;;8294852;28;20541;-82
2022/07/28 16:21:56;;;;;;;2.90;2.60;;;27.90;67.40;;;;;;8294299;28;20030;-81
2022/07/28 16:25:56;;;;;;;4.15;2.50;;;27.80;69.00;;;;;;8294799;28;20384;-81
2022/07/28 16:29:57;;;;;;;4.28;2.70;;;27.60;67.50;;;;;;8288888;28;20037;-81
2022/07/28 16:33:58;;;;;;;3.30;2.60;;;27.60;67.60;;;;;;8294560;28;20113;-81
2022/07/28 16:38:03;;;;;;;3.83;3.10;;;27.80;70.30;;;;;;8291829;28;20046;-82
2022/07/28 16:42:04;;;;;;;5.07;2.78;;;27.60;69.10;;;;;;8290739;28;20027;-81
2022/07/28 16:46:05;;;;;;;5.55;2.75;;;28.50;67.40;;;;;;8291077;28;20057;-81
2022/07/28 16:50:06;;;;;;;3.85;2.58;;;28.70;67.30;;;;;;8300894;28;20022;-82
2022/07/28 16:54:06;;;;;;;6.82;2.95;;;28.30;67.10;;;;;;8297732;28;20026;-81
2022/07/28 16:58:07;;;;;;;3.80;2.75;;;27.70;69.00;;;;;;8301367;28;20022;-82
2022/07/28 17:02:07;;;;;;;3.88;2.53;;;27.50;68.60;;;;;;8298118;28;20099;-82
2022/07/28 17:06:09;;;;;;;6.25;2.67;;;27.50;68.20;;;;;;8300210;28;20084;-81
2022/07/28 17:10:12;;;;;;;8.40;2.70;;;27.60;69.80;;;;;;8300467;28;20064;-82
2022/07/28 17:14:15;;;;;;;5.05;2.53;;;27.90;70.50;;;;;;8299777;28;20494;-81
2022/07/28 17:18:15;;;;;;;6.82;2.92;;;27.90;69.60;;;;;;8294057;28;20030;-82
2022/07/28 17:22:16;;;;;;;6.13;2.53;;;27.60;68.50;;;;;;8299938;28;20046;-82
2022/07/28 17:26:17;;;;;;;5.68;2.70;;;27.30;70.00;;;;;;8300201;28;20025;-82
2022/07/28 17:30:17;;;;;;;4.38;2.35;;;27.10;71.50;;;;;;8296408;28;20026;-82
2022/07/28 17:34:18;;;;;;;7.28;2.60;;;27.10;70.50;;;;;;8299038;28;20022;-82
2022/07/28 17:38:20;;;;;;;7.95;2.83;;;26.90;72.40;;;;;;8299533;28;20463;-82
2022/07/28 17:42:20;;;;;;;4.97;2.75;;;26.80;72.10;;;;;;8300447;28;20029;-82
2022/07/28 17:46:21;;;;;;;4.13;2.78;;;26.60;72.10;;;;;;8299001;28;20477;-82
2022/07/28 17:50:22;;;;;;;3.75;2.72;;;26.50;73.30;;;;;;8296730;28;20026;-81
2022/07/28 17:54:23;;;;;;;6.10;2.60;;;26.40;74.10;;;;;;8298916;28;20030;-81
2022/07/28 17:58:27;;;;;;;5.38;2.58;;;26.30;74.20;;;;;;8299410;28;20021;-81
2022/07/28 18:02:28;;;;;;;5.75;2.50;;;26.10;75.80;;;;;;8292052;28;20096;-82
2022/07/28 18:06:32;;;;;;;5.40;2.60;;;25.90;77.30;;;;;;8296540;28;20117;-82
2022/07/28 18:10:33;;;;;;;3.88;2.70;;;25.60;78.20;;;;;;8296990;28;20049;-82
2022/07/28 18:14:33;;;;;;;3.08;2.50;;;25.50;78.30;;;;;;8297726;28;20025;-81
2022/07/28 18:18:34;;;;;;;4.57;2.40;;;25.30;78.50;;;;;;8297778;28;20054;-81
2022/07/28 18:22:34;;;;;;;5.40;3.05;;;25.10;79.60;;;;;;8299224;28;20057;-81
2022/07/28 18:26:35;;;;;;;4.95;2.63;;;24.90;80.70;;;;;;8298482;28;20049;-81
2022/07/28 18:30:35;;;;;;;6.45;2.90;;;24.60;81.50;;;;;;8299534;28;20068;-81
2022/07/28 18:34:37;;;;;;;5.15;2.92;;;24.50;82.40;;;;;;8296986;28;20018;-82
2022/07/28 18:38:38;;;;;;;3.15;2.50;;;24.20;83.70;;;;;;8298498;28;20081;-81
2022/07/28 18:42:40;;;;;;;4.97;3.10;;;24.20;84.90;;;;;;8296677;28;20071;-82
2022/07/28 18:46:41;;;;;;;5.72;2.88;;;23.90;86.10;;;;;;8296145;28;20033;-82
2022/07/28 18:50:42;;;;;;;5.75;2.72;;;23.90;86.80;;;;;;8296748;28;20123;-82
2022/07/28 18:54:42;;;;;;;5.30;2.85;;;23.80;88.50;;;;;;8296725;28;20401;-83
2022/07/28 18:58:43;;;;;;;3.30;2.42;;;23.70;87.90;;;;;;8296714;28;20026;-81
2022/07/28 19:02:43;;;;;;;4.10;3.00;;;23.60;89.10;;;;;;8296531;28;20036;-81
2022/07/28 19:06:44;;;;;;;4.38;2.88;;;23.60;89.20;;;;;;8294837;28;20056;-81
2022/07/28 19:10:44;;;;;;;13.90;2.92;;;23.40;89.70;;;;;;8295750;28;20026;-81
2022/07/28 19:14:45;;;;;;;5.50;3.08;;;23.40;90.00;;;;;;8295857;28;20018;-81
2022/07/28 19:18:46;;;;;;;7.15;3.03;;;23.40;90.30;;;;;;8296198;28;20037;-82
2022/07/28 19:22:46;;;;;;;6.80;2.65;;;23.20;90.70;;;;;;8296873;28;20072;-81
2022/07/28 19:26:50;;;;;;;5.35;2.95;;;23.20;90.70;;;;;;8297198;28;20088;-81
2022/07/28 19:30:50;;;;;;;4.72;2.88;;;23.10;91.50;;;;;;8297719;28;20022;-81
2022/07/28 19:34:51;;;;;;;4.43;2.70;;;23.00;91.50;;;;;;8296220;28;20061;-81
2022/07/28 19:38:51;;;;;;;5.57;3.03;;;23.00;91.70;;;;;;8296821;28;20513;-82
2022/07/28 19:42:52;;;;;;;5.65;2.70;;;22.90;91.60;;;;;;8296595;28;20030;-82
2022/07/28 19:46:54;;;;;;;5.97;2.85;;;23.00;91.70;;;;;;8295899;28;20073;-82
2022/07/28 19:50:55;;;;;;;10.75;3.10;;;23.20;91.30;;;;;;8293323;28;20026;-81
2022/07/28 19:54:56;;;;;;;6.07;2.83;;;23.20;91.30;;;;;;8289355;28;20516;-82
2022/07/28 19:58:56;;;;;;;6.05;2.60;;;23.20;91.70;;;;;;8294152;28;20044;-82
2022/07/28 20:02:57;;;;;;;6.07;2.50;;;23.10;91.30;;;;;;8294010;28;20077;-81
2022/07/28 20:06:57;;;;;;;5.13;2.70;;;23.20;92.10;;;;;;8293539;28;20038;-81
2022/07/28 20:10:58;;;;;;;3.95;2.35;;;23.40;91.90;;;;;;8293695;28;20025;-81
2022/07/28 20:14:58;;;;;;;7.20;3.05;;;23.50;92.60;;;;;;8292647;28;20120;-79
2022/07/28 20:18:59;;;;;;;6.10;3.20;;;23.00;97.40;;;;;;8292537;28;20671;-80
2022/07/28 20:22:59;;;;;;;7.97;4.45;;;21.60;99.90;;;;;;8289321;28;20033;-79
2022/07/28 20:27:02;;;;;;;8.45;4.90;;;20.60;99.90;;;;;;8289962;28;20033;-78
2022/07/28 20:31:03;;;;;;;9.18;4.65;;;20.00;99.90;;;;;;8289283;28;20045;-82
2022/07/28 20:45:10;;;;;;;12.70;7.72;;;18.80;99.90;;;;;;8296912;28;20036;-81
2022/07/28 20:49:10;;;;;;;11.60;8.40;;;18.50;99.90;;;;;;8291886;28;20025;-83
2022/07/28 20:53:11;;;;;;;11.60;7.65;;;18.30;99.90;;;;;;8288695;28;20174;-83
2022/07/28 20:57:12;;;;;;;9.95;7.03;;;18.20;99.90;;;;;;8293478;28;20034;-84
2022/07/28 21:01:13;;;;;;;12.30;9.35;;;18.20;99.90;;;;;;8292577;28;20223;-85
2022/07/28 21:05:13;;;;;;;11.45;9.73;;;18.10;99.90;;;;;;8286129;28;20109;-85
2022/07/28 21:09:14;;;;;;;13.75;9.93;;;18.00;99.90;;;;;;8293469;28;20018;-85
2022/07/28 21:13:15;;;;;;;14.45;11.90;;;18.00;99.90;;;;;;8286863;28;20036;-84